Aérodrome :
LOGIN :

S'inscrire | Disclaimer

   EN    FR    IT 

 










Légende :    VFR   VFR Marginal   IFR   IFR Intensif   IFR Très Intensif
Visi : 
Plafond : 
>= 8 km
>= 3000ft
5 à 8 km
1000 à 3000 ft
1500m à 5 km
500 à 1000 ft
800 à 1500m
200 à 500 ft
< 800m
< 200 ft
Symboles :   Orages  Brouillard  Fortes neiges  Fortes précipitations  Vent > 20 kt
SIGMETs :   Divers  Orages  Givrage  Turbulence  Onde Orograph.  Cendres Volcan.






- Altitude de l'aérodrome : 171 ft
- Code IATA : EGC


LFBE - Bergerac

DERNIER METAR :
  • 231930Z AUTO 28012KT 9999 ///TCU 22/17 Q1010 BECMG NSC

METARs EXPIRÉS :
  • 231900Z AUTO 28011KT 9999 VCTS ///CB 23/17 Q1010 TEMPO 29015G25KT BECMG NSW NSC
  • 231830Z AUTO 26012KT CAVOK 23/18 Q1010 TEMPO 29015G25KT -TSRA BKN030 BKN100CB
  • 231800Z AUTO 28016KT 9999 FEW031 BKN050 BKN150 24/19 Q1010 TEMPO 29015G25KT -TSRA BKN030 BKN100CB
  • 231730Z AUTO 27017KT 9999 SCT026 BKN032 OVC042 24/19 Q1010 TEMPO 29015G25KT -TSRA BKN030 BKN100CB
  • 231700Z AUTO 27015KT 9999 BKN027 BKN042 25/20 Q1010 TEMPO 29015G25KT -TSRA BKN100CB

TAF AMD TAF LFBE
Valide du 23 à 17h jusqu'au 24 à 12h UTC


231705Z 2317/2412 29012KT CAVOK
PROB30
TEMPO 2317/2320 29015G25KT -TSRA BKN030 BKN100CB
BECMG 2400/2402 23008KT
TEMPO 2400/2412 BKN015



MET'MAP, la Météo Aéronautique d'un coup d'oeil ! - Copyright ORBIFLY Décembre 2007 - Disclaimer

ORBIFLY MET'MAP TEAM :

Programmation & Développement : Alexandra Zaïnal
Sur une idée originale de : Baudouin d'Aumeries
Assistance à la programmation : Marc-Olivier Méhu
Soutien technique & logistique : Manuel Goepfert

Contact : metmap@orbifly.com




SOURCES & CREDITS :

   NOAA